Time;durP1;ratioP1;P1;durP2;ratioP2;P2;SDS_P1;SDS_P2;PMS_P1;PMS_P2;Temp;Humidity;BMP_temperature;BMP_pressure;BME280_temperature;BME280_humidity;BME280_pressure;Samples;Min_cycle;Max_cycle;Signal;HPM_P1;HPM_P2
2023/05/02 00:02:03;;;;;;;11.77;4.72;;;9.50;99.90;;;;;;5054676;28;20056;-43
2023/05/02 00:04:29;;;;;;;13.43;4.40;;;9.50;99.90;;;;;;5054850;28;20055;-46
2023/05/02 00:06:55;;;;;;;13.30;4.88;;;9.50;99.90;;;;;;5037678;28;20058;-45
2023/05/02 00:09:21;;;;;;;12.52;3.85;;;9.40;99.90;;;;;;5054631;28;20111;-45
2023/05/02 00:11:46;;;;;;;14.60;4.00;;;9.40;99.90;;;;;;5056369;28;20036;-44
2023/05/02 00:14:12;;;;;;;12.38;3.72;;;9.40;99.90;;;;;;5055802;28;20052;-46
2023/05/02 00:16:38;;;;;;;9.50;3.28;;;9.40;99.90;;;;;;5038337;28;20051;-48
2023/05/02 00:19:04;;;;;;;8.68;3.42;;;9.50;99.90;;;;;;5054519;28;20504;-45
2023/05/02 00:21:30;;;;;;;11.85;3.17;;;9.40;99.90;;;;;;5055261;28;20421;-45
2023/05/02 00:23:56;;;;;;;12.68;3.33;;;9.30;99.90;;;;;;5055835;28;20472;-45
2023/05/02 00:26:22;;;;;;;13.77;3.80;;;9.80;99.90;;;;;;5053774;28;20045;-47
2023/05/02 00:28:48;;;;;;;10.82;3.13;;;9.40;99.90;;;;;;5055039;28;20048;-46
2023/05/02 00:31:14;;;;;;;11.98;2.35;;;9.20;99.90;;;;;;5055251;28;20052;-49
2023/05/02 00:33:40;;;;;;;13.68;2.70;;;9.30;99.90;;;;;;5055442;28;20044;-49
2023/05/02 00:36:16;;;;;;;11.38;2.60;;;9.20;99.90;;;;;;5054493;28;20064;-50
2023/05/02 00:38:42;;;;;;;12.07;2.67;;;9.30;99.90;;;;;;5053343;28;20036;-47
2023/05/02 00:41:08;;;;;;;11.13;2.60;;;9.30;99.90;;;;;;5055628;28;20139;-49
2023/05/02 00:43:35;;;;;;;12.32;3.22;;;9.30;99.90;;;;;;5055133;28;20094;-48
2023/05/02 00:46:01;;;;;;;10.30;2.90;;;9.20;99.90;;;;;;5054673;28;20058;-47
2023/05/02 00:48:27;;;;;;;12.05;3.60;;;9.20;99.90;;;;;;5035906;28;20033;-47
2023/05/02 00:50:53;;;;;;;12.40;3.08;;;9.20;99.90;;;;;;5054385;28;20788;-47
2023/05/02 00:53:19;;;;;;;12.00;3.85;;;9.20;99.90;;;;;;5054256;28;21051;-49
2023/05/02 00:55:44;;;;;;;12.93;2.92;;;8.90;99.90;;;;;;5054586;28;20044;-51
2023/05/02 00:58:13;;;;;;;11.35;3.13;;;10.60;99.90;;;;;;5053384;28;20382;-49
2023/05/02 01:00:57;;;;;;;10.68;2.95;;;8.80;99.90;;;;;;5053909;28;20550;-51
2023/05/02 01:03:29;;;;;;;12.27;3.28;;;8.90;99.90;;;;;;5036690;28;20394;-47
2023/05/02 01:06:28;;;;;;;14.02;3.33;;;8.90;99.90;;;;;;5053781;28;20109;-48
2023/05/02 01:09:32;;;;;;;12.98;2.83;;;8.90;99.90;;;;;;5052091;28;20183;-49
2023/05/02 01:12:04;;;;;;;10.00;2.63;;;9.00;99.90;;;;;;5056072;28;20051;-48
2023/05/02 01:14:34;;;;;;;9.57;2.60;;;8.90;99.90;;;;;;5052823;28;20044;-51
2023/05/02 01:17:07;;;;;;;10.48;2.92;;;9.00;99.90;;;;;;5054894;28;20436;-50
2023/05/02 01:19:37;;;;;;;15.73;4.57;;;9.20;99.90;;;;;;5053073;28;20051;-50
2023/05/02 01:22:07;;;;;;;11.20;3.50;;;8.90;99.90;;;;;;5054119;28;20620;-48
2023/05/02 01:24:56;;;;;;;17.08;4.55;;;8.90;99.90;;;;;;5054579;28;20044;-45
2023/05/02 01:27:47;;;;;;;25.02;5.38;;;9.10;99.90;;;;;;5053131;28;20037;-49
2023/05/02 01:30:16;;;;;;;17.95;4.97;;;9.10;99.90;;;;;;5055203;28;20172;-47
2023/05/02 01:32:46;;;;;;;19.60;4.22;;;8.90;99.90;;;;;;5054295;28;20478;-47
2023/05/02 01:35:14;;;;;;;24.10;5.72;;;9.20;99.90;;;;;;5053744;28;20135;-48
2023/05/02 01:37:43;;;;;;;27.67;5.00;;;8.60;99.90;;;;;;5051751;28;20110;-50
2023/05/02 01:40:10;;;;;;;20.90;4.88;;;8.80;99.90;;;;;;5052315;28;20044;-50
2023/05/02 01:42:38;;;;;;;19.65;4.03;;;8.60;99.90;;;;;;5054896;28;20059;-47
2023/05/02 01:45:06;;;;;;;21.23;3.90;;;8.60;99.90;;;;;;5053405;28;20139;-49
2023/05/02 01:47:34;;;;;;;16.15;3.35;;;8.70;99.90;;;;;;5054114;28;20052;-50
2023/05/02 01:50:04;;;;;;;14.95;3.63;;;9.00;99.90;;;;;;5053175;28;20120;-49
2023/05/02 01:52:30;;;;;;;18.35;3.45;;;8.60;99.90;;;;;;5054335;28;20505;-50
2023/05/02 01:54:59;;;;;;;22.40;4.03;;;8.80;99.90;;;;;;5052044;28;20090;-47
2023/05/02 01:57:26;;;;;;;20.15;3.75;;;8.40;99.90;;;;;;5051730;28;20098;-49
2023/05/02 01:59:55;;;;;;;25.90;4.22;;;8.60;99.90;;;;;;5052628;28;20075;-49
2023/05/02 02:02:25;;;;;;;23.80;4.47;;;8.40;99.90;;;;;;5052765;28;20044;-48
2023/05/02 02:04:54;;;;;;;17.52;4.25;;;9.00;99.90;;;;;;5035179;28;20131;-50
2023/05/02 02:07:20;;;;;;;18.88;5.20;;;8.50;99.90;;;;;;5052550;28;20680;-48
2023/05/02 02:09:46;;;;;;;23.63;5.35;;;8.40;99.90;;;;;;5052362;28;20052;-49
2023/05/02 02:12:29;;;;;;;19.75;5.18;;;8.30;99.90;;;;;;5054741;28;20624;-50
2023/05/02 02:15:02;;;;;;;21.70;4.65;;;8.10;99.90;;;;;;5051912;28;20658;-47
2023/05/02 02:17:48;;;;;;;;;;;8.70;99.90;;;;;;5053090;28;20040;-50
2023/05/02 02:20:15;;;;;;;26.23;4.85;;;8.20;99.90;;;;;;5051502;28;19924;-49
2023/05/02 02:22:43;;;;;;;20.85;4.93;;;8.20;99.90;;;;;;5051149;28;20386;-49
2023/05/02 02:25:15;;;;;;;18.98;4.03;;;8.10;99.90;;;;;;5052284;28;20592;-51
2023/05/02 02:27:41;;;;;;;19.75;4.25;;;8.00;99.90;;;;;;5052384;28;20598;-50
2023/05/02 02:30:08;;;;;;;22.17;4.75;;;8.20;99.90;;;;;;5035240;28;20075;-49
2023/05/02 02:32:34;;;;;;;25.95;5.32;;;8.10;99.90;;;;;;5033435;28;20090;-49
2023/05/02 02:35:02;;;;;;;22.02;4.78;;;8.10;99.90;;;;;;5052577;28;20458;-51
2023/05/02 02:37:35;;;;;;;20.33;4.68;;;8.00;99.90;;;;;;5034144;28;20048;-51
2023/05/02 02:40:15;;;;;;;22.77;4.45;;;7.80;99.90;;;;;;5052782;28;20116;-47
2023/05/02 02:42:59;;;;;;;24.98;5.75;;;8.20;99.90;;;;;;5053476;28;20047;-51
2023/05/02 02:45:42;;;;;;;20.15;3.97;;;8.00;99.90;;;;;;5052250;28;20386;-51
2023/05/02 02:48:29;;;;;;;28.15;6.20;;;8.10;99.90;;;;;;5053053;28;20047;-50
2023/05/02 02:51:01;;;;;;;19.17;4.35;;;8.00;99.90;;;;;;5051240;28;20044;-51
2023/05/02 02:53:51;;;;;;;21.50;5.20;;;7.70;99.90;;;;;;5034983;28;20075;-51
2023/05/02 02:56:27;;;;;;;21.52;4.32;;;7.60;99.90;;;;;;5052554;28;20039;-49
2023/05/02 02:59:13;;;;;;;18.73;5.28;;;7.50;99.90;;;;;;5053499;28;20044;-49
2023/05/02 03:01:42;;;;;;;22.40;4.88;;;7.60;99.90;;;;;;5050790;28;20806;-48
2023/05/02 03:04:12;;;;;;;21.65;4.97;;;7.80;99.90;;;;;;5051309;28;20048;-48
2023/05/02 03:06:38;;;;;;;21.40;3.50;;;7.40;99.90;;;;;;5051633;28;20131;-47
2023/05/02 03:09:04;;;;;;;17.02;3.45;;;7.40;99.90;;;;;;5051774;28;20402;-47
2023/05/02 03:11:29;;;;;;;23.35;4.32;;;8.00;99.90;;;;;;5052243;28;20045;-50
2023/05/02 03:13:55;;;;;;;18.33;3.30;;;7.60;99.90;;;;;;5052765;28;20044;-50
2023/05/02 03:16:40;;;;;;;16.25;3.35;;;9.00;99.90;;;;;;5050818;28;20040;-50
2023/05/02 03:19:07;;;;;;;16.40;3.38;;;8.50;99.90;;;;;;5051777;28;20117;-49
2023/05/02 03:21:34;;;;;;;20.98;3.83;;;9.00;99.90;;;;;;5053329;28;20040;-46
2023/05/02 03:24:01;;;;;;;15.45;3.17;;;8.00;99.90;;;;;;5049670;28;20052;-49
2023/05/02 03:26:27;;;;;;;17.08;3.25;;;7.70;99.90;;;;;;5051546;28;20776;-46
2023/05/02 03:28:54;;;;;;;12.80;3.10;;;7.20;99.90;;;;;;5052165;28;20044;-50
2023/05/02 03:31:20;;;;;;;17.35;3.35;;;7.40;99.90;;;;;;5050900;28;20114;-51
2023/05/02 03:33:46;;;;;;;10.52;2.40;;;7.40;99.90;;;;;;5050524;28;20429;-46
2023/05/02 03:36:12;;;;;;;15.10;2.83;;;8.40;99.90;;;;;;5051902;28;21326;-48
2023/05/02 03:38:38;;;;;;;15.88;3.17;;;7.30;99.90;;;;;;5051673;28;20060;-50
2023/05/02 03:41:04;;;;;;;16.17;3.22;;;7.30;99.90;;;;;;5033298;28;20485;-47
2023/05/02 03:43:30;;;;;;;14.35;2.50;;;7.50;99.90;;;;;;5052785;28;20472;-48
2023/05/02 03:45:56;;;;;;;12.07;2.22;;;8.10;99.90;;;;;;5052622;28;20131;-46
2023/05/02 03:48:22;;;;;;;17.85;3.47;;;7.20;99.90;;;;;;5052687;28;20382;-51
2023/05/02 03:50:49;;;;;;;13.20;2.70;;;7.30;99.90;;;;;;5051999;28;20095;-50
2023/05/02 03:53:15;;;;;;;13.63;2.55;;;7.20;99.90;;;;;;5051018;28;20041;-48
2023/05/02 03:55:42;;;;;;;11.23;2.85;;;8.40;99.90;;;;;;5052616;28;20159;-48
2023/05/02 03:58:09;;;;;;;9.77;2.22;;;9.20;99.90;;;;;;5051905;28;20059;-46
2023/05/02 04:00:34;;;;;;;9.30;2.47;;;9.00;99.90;;;;;;5052665;28;20059;-46
2023/05/02 04:03:01;;;;;;;10.90;2.50;;;7.10;99.90;;;;;;5050863;28;20056;-47
2023/05/02 04:05:27;;;;;;;13.68;2.20;;;9.00;99.90;;;;;;5051627;28;20041;-46
2023/05/02 04:07:54;;;;;;;12.73;2.75;;;7.10;99.90;;;;;;5052030;28;20614;-46
2023/05/02 04:10:20;;;;;;;8.75;2.35;;;7.00;99.90;;;;;;5052896;28;20072;-46
2023/05/02 04:12:45;;;;;;;13.07;3.05;;;8.60;99.90;;;;;;5051427;28;20159;-50
2023/05/02 04:15:11;;;;;;;16.35;2.35;;;7.10;99.90;;;;;;5034685;28;20071;-45
2023/05/02 04:17:38;;;;;;;12.75;2.58;;;7.30;99.90;;;;;;5051201;28;20098;-50
2023/05/02 04:20:04;;;;;;;10.40;2.35;;;9.20;99.90;;;;;;5052648;28;20040;-46
2023/05/02 04:22:31;;;;;;;10.32;2.15;;;7.30;99.90;;;;;;5053019;28;20455;-46
2023/05/02 04:24:58;;;;;;;9.07;1.80;;;7.20;99.90;;;;;;5052836;28;20917;-49
2023/05/02 04:27:23;;;;;;;8.88;2.60;;;8.30;99.90;;;;;;5051581;28;20164;-46
2023/05/02 04:29:50;;;;;;;8.65;1.73;;;8.00;99.90;;;;;;5050911;28;20036;-50
2023/05/02 04:32:16;;;;;;;10.55;1.80;;;7.10;99.90;;;;;;5052094;28;20068;-47
2023/05/02 04:34:42;;;;;;;7.90;2.08;;;7.50;99.90;;;;;;5033705;28;20049;-47
2023/05/02 04:37:07;;;;;;;13.02;1.98;;;7.10;99.90;;;;;;5053535;28;20110;-45
2023/05/02 04:39:33;;;;;;;10.52;2.33;;;7.00;99.90;;;;;;5054228;28;20739;-48
2023/05/02 04:42:00;;;;;;;12.73;2.03;;;7.10;99.90;;;;;;5054879;28;20822;-49
2023/05/02 04:44:26;;;;;;;10.25;2.10;;;7.10;99.90;;;;;;5054764;28;20448;-46
2023/05/02 04:46:52;;;;;;;11.85;1.88;;;7.00;99.90;;;;;;5053560;28;20036;-48
2023/05/02 04:49:18;;;;;;;7.70;1.80;;;7.00;99.90;;;;;;5053774;28;20037;-47
2023/05/02 04:51:44;;;;;;;9.07;2.15;;;7.20;99.90;;;;;;5052745;28;20741;-46
2023/05/02 04:54:10;;;;;;;12.07;2.70;;;7.10;99.90;;;;;;5053812;28;20032;-45
2023/05/02 04:56:36;;;;;;;8.80;1.90;;;7.00;99.90;;;;;;5036995;28;20113;-46
2023/05/02 04:59:01;;;;;;;11.98;3.05;;;9.00;99.90;;;;;;5035471;28;20052;-46
2023/05/02 05:01:27;;;;;;;13.15;2.63;;;7.10;99.90;;;;;;5053394;28;20117;-45
2023/05/02 05:03:53;;;;;;;12.32;2.72;;;7.10;99.90;;;;;;5051228;28;20766;-47
2023/05/02 05:06:19;;;;;;;11.75;2.42;;;8.40;99.90;;;;;;5054089;28;20061;-45
2023/05/02 05:08:45;;;;;;;12.43;2.50;;;7.10;99.90;;;;;;5052893;28;20048;-48
2023/05/02 05:11:11;;;;;;;9.57;2.10;;;7.10;99.90;;;;;;5053115;28;20055;-45
2023/05/02 05:13:37;;;;;;;10.80;2.40;;;9.00;99.90;;;;;;5054763;28;20397;-45
2023/05/02 05:16:03;;;;;;;14.40;2.92;;;7.20;99.90;;;;;;5053572;28;20259;-47
2023/05/02 05:18:29;;;;;;;12.30;2.65;;;7.00;99.90;;;;;;5052824;28;20357;-48
2023/05/02 05:20:55;;;;;;;10.25;2.17;;;7.20;99.90;;;;;;5052231;28;20062;-47
2023/05/02 05:23:21;;;;;;;9.98;2.88;;;7.10;99.90;;;;;;5053961;28;20036;-46
2023/05/02 05:25:47;;;;;;;11.75;3.40;;;7.10;99.90;;;;;;5052485;28;20097;-45
2023/05/02 05:28:13;;;;;;;9.93;3.40;;;7.00;99.90;;;;;;5053308;28;20107;-46
2023/05/02 05:30:39;;;;;;;12.27;3.78;;;7.20;99.90;;;;;;5054391;28;20045;-45
2023/05/02 05:33:04;;;;;;;12.80;2.47;;;9.20;99.90;;;;;;5053059;28;20537;-47
2023/05/02 05:35:33;;;;;;;10.98;2.45;;;7.10;99.90;;;;;;5034635;28;20059;-49
2023/05/02 05:37:59;;;;;;;13.60;3.22;;;7.90;99.90;;;;;;5051911;28;20044;-45
2023/05/02 05:40:24;;;;;;;9.98;2.03;;;7.10;99.90;;;;;;5052901;28;20037;-47
2023/05/02 05:42:51;;;;;;;9.63;2.22;;;7.10;99.90;;;;;;5052195;28;20064;-47
2023/05/02 05:45:18;;;;;;;8.93;2.40;;;7.10;99.90;;;;;;5035552;28;20044;-45
2023/05/02 05:47:44;;;;;;;10.98;2.35;;;7.70;99.90;;;;;;5052638;28;21529;-47
2023/05/02 05:50:10;;;;;;;12.60;2.38;;;7.10;99.90;;;;;;5052546;28;20141;-46
2023/05/02 05:52:36;;;;;;;11.02;2.03;;;7.70;99.90;;;;;;5052692;28;20535;-47
2023/05/02 05:55:03;;;;;;;11.20;2.25;;;7.20;99.90;;;;;;5053068;28;20056;-46
2023/05/02 05:57:29;;;;;;;29.60;3.08;;;5.10;99.90;;;;;;5054704;28;20053;-46
2023/05/02 05:59:54;;;;;;;30.88;4.15;;;7.30;99.90;;;;;;5052895;28;20147;-47
2023/05/02 06:02:20;;;;;;;10.30;2.10;;;7.20;99.90;;;;;;5031391;28;20140;-47
2023/05/02 06:04:46;;;;;;;9.15;2.60;;;7.30;99.90;;;;;;5032435;28;20718;-45
2023/05/02 06:07:12;;;;;;;11.07;2.40;;;7.30;99.90;;;;;;5032958;28;20224;-47
2023/05/02 06:09:38;;;;;;;13.75;2.10;;;7.30;99.90;;;;;;5032748;28;20382;-45
2023/05/02 06:12:03;;;;;;;14.25;2.60;;;7.30;99.90;;;;;;5033476;28;20134;-46
2023/05/02 06:14:29;;;;;;;9.63;2.28;;;8.90;99.90;;;;;;5034756;28;20041;-47
2023/05/02 06:16:58;;;;;;;8.43;2.33;;;7.40;99.90;;;;;;5031855;28;20041;-46
2023/05/02 06:19:24;;;;;;;16.58;3.60;;;7.50;99.90;;;;;;5031809;28;20049;-44
2023/05/02 06:21:49;;;;;;;11.18;2.13;;;7.60;99.90;;;;;;5034214;28;20057;-46
2023/05/02 06:24:15;;;;;;;12.40;2.85;;;7.60;99.90;;;;;;5031500;28;20056;-45
2023/05/02 06:26:41;;;;;;;13.68;3.05;;;8.10;99.90;;;;;;5032155;28;20292;-46
2023/05/02 06:29:07;;;;;;;16.77;3.13;;;7.50;99.90;;;;;;5032350;28;20371;-46
2023/05/02 06:31:33;;;;;;;15.30;2.65;;;7.70;99.90;;;;;;5032672;28;20281;-45
2023/05/02 06:33:58;;;;;;;10.95;3.25;;;7.60;99.90;;;;;;5032252;28;20048;-44
2023/05/02 06:36:24;;;;;;;12.27;3.40;;;7.80;99.90;;;;;;5032655;28;20044;-45
2023/05/02 06:38:50;;;;;;;12.30;2.78;;;7.70;99.90;;;;;;5031505;28;20056;-44
2023/05/02 06:41:16;;;;;;;10.95;2.95;;;8.60;99.90;;;;;;5031946;28;20029;-44
2023/05/02 06:43:42;;;;;;;15.77;3.08;;;9.00;99.90;;;;;;5033708;28;20160;-46
2023/05/02 06:46:08;;;;;;;14.18;4.18;;;8.00;99.90;;;;;;5032879;28;20048;-44
2023/05/02 06:48:36;;;;;;;15.63;2.90;;;8.00;99.90;;;;;;5032269;28;20044;-47
2023/05/02 06:51:03;;;;;;;9.60;2.72;;;7.50;99.90;;;;;;5031818;28;20041;-44
2023/05/02 06:53:30;;;;;;;9.38;2.20;;;7.70;99.90;;;;;;5031347;28;20079;-46
2023/05/02 06:55:56;;;;;;;17.08;2.90;;;8.50;99.90;;;;;;5033509;28;20393;-46
2023/05/02 06:58:23;;;;;;;16.67;2.63;;;7.70;99.90;;;;;;5031655;28;20131;-46
2023/05/02 07:00:49;;;;;;;12.93;2.55;;;7.90;99.90;;;;;;5032526;28;20870;-45
2023/05/02 07:03:15;;;;;;;11.27;3.90;;;7.80;99.90;;;;;;5051142;28;20080;-46
2023/05/02 07:05:40;;;;;;;14.55;2.85;;;8.30;99.90;;;;;;5052950;28;20193;-48
2023/05/02 07:08:06;;;;;;;9.60;2.10;;;8.10;99.90;;;;;;5051395;28;20173;-45
2023/05/02 07:10:32;;;;;;;6.60;3.15;;;8.10;99.90;;;;;;5050854;28;20059;-48
2023/05/02 07:12:58;;;;;;;10.65;2.70;;;8.20;99.90;;;;;;5053126;28;20512;-46
2023/05/02 07:15:24;;;;;;;13.35;2.42;;;8.30;99.90;;;;;;5054502;28;20648;-47
2023/05/02 07:17:49;;;;;;;9.93;2.72;;;8.40;99.90;;;;;;5052173;28;20551;-46
2023/05/02 07:20:15;;;;;;;9.88;2.38;;;8.40;99.90;;;;;;5052765;28;20114;-47
2023/05/02 07:22:41;;;;;;;11.32;2.65;;;8.50;99.90;;;;;;5051484;28;20097;-47
2023/05/02 07:25:08;;;;;;;9.98;2.42;;;8.60;99.90;;;;;;5052012;28;20056;-49
2023/05/02 07:27:34;;;;;;;12.82;3.08;;;8.70;99.90;;;;;;5033318;28;20047;-47
2023/05/02 07:30:00;;;;;;;11.27;2.67;;;8.80;99.90;;;;;;5034522;28;20059;-47
2023/05/02 07:32:25;;;;;;;15.13;2.50;;;9.70;99.90;;;;;;5033480;28;20102;-49
2023/05/02 07:34:55;;;;;;;10.68;2.45;;;8.90;99.90;;;;;;5051740;28;20124;-49
2023/05/02 07:37:22;;;;;;;13.43;2.78;;;8.90;99.90;;;;;;5051644;28;20493;-50
2023/05/02 07:39:48;;;;;;;14.60;2.20;;;9.40;99.90;;;;;;5051581;28;20135;-48
2023/05/02 07:42:13;;;;;;;9.50;2.30;;;9.40;99.90;;;;;;5051258;28;20223;-49
2023/05/02 07:44:39;;;;;;;8.20;1.98;;;8.80;99.90;;;;;;5053038;28;20094;-46
2023/05/02 07:47:05;;;;;;;13.48;2.58;;;8.80;99.90;;;;;;5050515;28;20047;-46
2023/05/02 07:49:31;;;;;;;17.42;4.13;;;8.80;99.90;;;;;;5052285;28;20055;-48
2023/05/02 07:51:57;;;;;;;12.25;2.58;;;8.70;99.90;;;;;;5051552;28;20098;-50
2023/05/02 07:54:25;;;;;;;14.23;3.13;;;8.80;99.90;;;;;;5050829;28;20036;-45
2023/05/02 07:56:51;;;;;;;10.13;2.20;;;8.80;99.90;;;;;;5032750;28;20064;-50
2023/05/02 07:59:16;;;;;;;8.05;2.00;;;8.70;99.90;;;;;;5049880;28;20048;-51
2023/05/02 08:01:43;;;;;;;11.45;1.95;;;9.00;99.90;;;;;;5051881;28;20040;-48
2023/05/02 08:04:11;;;;;;;6.07;1.63;;;9.00;99.90;;;;;;5050432;28;20048;-50
2023/05/02 08:06:37;;;;;;;8.23;2.05;;;9.00;99.90;;;;;;5050644;28;20049;-48
2023/05/02 08:09:03;;;;;;;9.32;1.92;;;9.00;99.90;;;;;;5051160;28;20654;-46
2023/05/02 08:11:29;;;;;;;5.90;1.60;;;9.10;99.90;;;;;;5055636;28;20048;-47
2023/05/02 08:13:55;;;;;;;10.13;2.60;;;9.10;99.90;;;;;;5056710;28;20037;-50
2023/05/02 08:16:21;;;;;;;11.60;1.77;;;9.00;99.90;;;;;;5055785;28;20523;-49
2023/05/02 08:18:46;;;;;;;7.75;2.35;;;9.00;99.90;;;;;;5057164;28;20048;-48
2023/05/02 08:21:12;;;;;;;10.68;2.22;;;9.20;99.90;;;;;;5055074;28;20076;-49
2023/05/02 08:23:40;;;;;;;13.30;1.88;;;10.60;99.90;;;;;;5056992;28;20048;-48
2023/05/02 08:26:06;;;;;;;6.65;2.10;;;9.10;99.90;;;;;;5055064;28;20044;-50
2023/05/02 08:28:32;;;;;;;6.72;2.17;;;9.20;99.90;;;;;;5055578;28;20048;-50
2023/05/02 08:31:00;;;;;;;7.18;1.58;;;9.20;99.90;;;;;;5055874;28;20036;-51
2023/05/02 08:33:26;;;;;;;7.53;1.70;;;9.10;99.90;;;;;;5057580;28;20432;-47
2023/05/02 08:35:52;;;;;;;9.07;1.95;;;9.10;99.90;;;;;;5056115;28;20036;-49
2023/05/02 08:38:18;;;;;;;8.25;1.90;;;9.00;99.90;;;;;;5055550;28;20123;-49
2023/05/02 08:40:43;;;;;;;8.57;1.80;;;9.10;99.90;;;;;;5056985;28;20501;-50
2023/05/02 08:43:15;;;;;;;5.85;2.08;;;9.30;99.90;;;;;;5056201;28;20064;-48
2023/05/02 08:45:43;;;;;;;4.95;1.55;;;9.30;99.90;;;;;;5058597;28;20124;-47
2023/05/02 08:48:10;;;;;;;13.75;2.00;;;9.10;99.90;;;;;;5056863;28;20040;-49
2023/05/02 08:50:42;;;;;;;7.47;1.70;;;9.30;99.90;;;;;;5054526;28;20052;-50
2023/05/02 08:53:09;;;;;;;8.40;2.22;;;9.30;99.90;;;;;;5056015;28;20056;-49
2023/05/02 08:55:40;;;;;;;9.85;1.85;;;9.70;99.90;;;;;;5055922;28;20052;-47
2023/05/02 08:58:09;;;;;;;9.35;1.88;;;9.80;99.90;;;;;;5055058;28;20032;-51
2023/05/02 09:00:41;;;;;;;5.05;1.38;;;10.50;99.90;;;;;;5036538;28;20028;-49
2023/05/02 09:03:22;;;;;;;9.98;1.60;;;11.00;99.90;;;;;;5054723;28;20072;-48
2023/05/02 09:05:54;;;;;;;7.20;1.45;;;10.90;99.90;;;;;;5054459;28;20144;-48
2023/05/02 09:08:23;;;;;;;5.35;1.45;;;10.70;99.90;;;;;;5055786;28;20041;-47
2023/05/02 09:10:50;;;;;;;10.40;1.73;;;10.50;99.90;;;;;;5055131;28;20234;-48
2023/05/02 09:13:45;;;;;;;7.63;1.73;;;10.50;99.90;;;;;;5055474;28;20135;-50
2023/05/02 09:16:13;;;;;;;6.00;1.45;;;10.40;99.90;;;;;;5037999;28;20485;-48
2023/05/02 09:18:43;;;;;;;4.28;1.40;;;10.20;99.90;;;;;;5055525;28;20388;-49
2023/05/02 09:21:11;;;;;;;5.22;1.40;;;10.30;99.90;;;;;;5053184;28;20062;-51
2023/05/02 09:23:38;;;;;;;6.13;1.00;;;10.60;99.90;;;;;;5054923;28;20044;-47
2023/05/02 09:26:16;;;;;;;6.05;1.13;;;10.60;99.90;;;;;;5053752;28;20051;-48
2023/05/02 09:28:50;;;;;;;4.88;0.90;;;10.50;99.90;;;;;;5054900;28;20048;-50
2023/05/02 09:31:20;;;;;;;6.70;0.73;;;11.10;99.90;;;;;;5054975;28;20096;-49
2023/05/02 09:33:47;;;;;;;4.47;1.00;;;11.50;99.90;;;;;;5054608;28;20476;-48
2023/05/02 09:36:18;;;;;;;4.82;0.90;;;11.60;99.90;;;;;;5053245;28;20067;-50
2023/05/02 09:38:46;;;;;;;4.95;1.00;;;11.80;99.90;;;;;;5036387;28;20055;-48
2023/05/02 09:41:12;;;;;;;4.85;1.23;;;11.70;99.90;;;;;;5054123;28;20101;-50
2023/05/02 09:43:39;;;;;;;5.15;0.93;;;11.50;99.90;;;;;;5054390;28;20452;-45
2023/05/02 09:46:09;;;;;;;4.60;0.80;;;11.70;99.90;;;;;;5054898;28;20125;-45
2023/05/02 09:48:52;;;;;;;5.70;1.00;;;12.20;99.90;;;;;;5053952;28;20036;-44
2023/05/02 09:51:18;;;;;;;;;;;12.90;99.90;;;;;;5021312;28;20971;-45
2023/05/02 09:53:44;;;;;;;4.28;1.00;;;12.70;99.90;;;;;;5054232;28;19920;-49
2023/05/02 09:56:11;;;;;;;5.97;1.30;;;12.10;99.90;;;;;;5055128;28;20605;-48
2023/05/02 09:58:36;;;;;;;4.20;1.25;;;12.00;99.90;;;;;;5037632;28;20045;-47
2023/05/02 10:01:02;;;;;;;4.07;1.20;;;11.50;99.90;;;;;;5053764;28;20060;-45
2023/05/02 10:03:29;;;;;;;7.72;1.38;;;11.40;99.90;;;;;;5054583;28;20091;-49
2023/05/02 10:05:55;;;;;;;5.43;1.20;;;11.00;99.90;;;;;;5053391;28;20045;-48
2023/05/02 10:08:26;;;;;;;3.50;1.17;;;11.50;99.90;;;;;;5056035;28;20036;-48
2023/05/02 10:10:57;;;;;;;8.90;1.25;;;11.70;99.90;;;;;;5054732;28;20060;-47
2023/05/02 10:13:26;;;;;;;7.97;1.38;;;12.10;99.90;;;;;;5055496;28;20106;-48
2023/05/02 10:16:06;;;;;;;5.22;0.95;;;12.10;99.90;;;;;;5056428;28;20048;-45
2023/05/02 10:18:57;;;;;;;6.20;1.00;;;12.40;99.90;;;;;;5053544;28;20051;-48
2023/05/02 10:21:28;;;;;;;2.95;0.90;;;12.80;99.90;;;;;;5036665;28;20039;-47
2023/05/02 10:23:55;;;;;;;5.88;1.23;;;13.50;99.90;;;;;;5052876;28;20676;-47
2023/05/02 10:26:22;;;;;;;6.03;1.25;;;13.20;99.90;;;;;;5053087;28;20036;-44
2023/05/02 10:28:49;;;;;;;5.25;1.00;;;14.10;99.90;;;;;;5053467;28;20150;-47
2023/05/02 10:31:17;;;;;;;7.78;1.10;;;14.50;99.90;;;;;;5052538;28;20059;-45
2023/05/02 10:33:43;;;;;;;3.40;1.10;;;15.10;99.90;;;;;;5053490;28;20044;-46
2023/05/02 10:36:13;;;;;;;4.07;1.20;;;13.90;99.90;;;;;;5053319;28;20079;-46
2023/05/02 10:38:40;;;;;;;6.85;1.13;;;13.40;99.90;;;;;;5052962;28;20467;-45
2023/05/02 10:41:25;;;;;;;6.65;1.00;;;12.90;99.90;;;;;;5052128;28;20044;-45
2023/05/02 10:43:52;;;;;;;5.30;1.00;;;12.40;99.90;;;;;;5053212;28;20108;-46
2023/05/02 10:46:32;;;;;;;7.18;1.23;;;12.40;99.90;;;;;;5036951;28;20044;-45
2023/05/02 10:49:11;;;;;;;6.82;1.38;;;12.50;99.90;;;;;;5051588;28;20052;-46
2023/05/02 10:51:40;;;;;;;8.73;1.20;;;11.90;99.90;;;;;;5052266;28;20045;-48
2023/05/02 10:54:24;;;;;;;3.25;0.93;;;12.00;99.90;;;;;;5052651;28;20068;-46
2023/05/02 10:57:02;;;;;;;4.65;1.13;;;11.90;99.90;;;;;;5033967;28;20044;-47
2023/05/02 10:59:37;;;;;;;7.07;1.30;;;11.50;99.90;;;;;;5051556;28;20539;-47
2023/05/02 11:02:26;;;;;;;5.25;1.20;;;11.60;99.90;;;;;;5034923;28;20673;-46
2023/05/02 11:05:04;;;;;;;7.10;1.48;;;11.50;99.90;;;;;;5036196;28;20052;-47
2023/05/02 11:07:35;;;;;;;4.72;1.05;;;11.40;99.90;;;;;;5053232;28;20044;-46
2023/05/02 11:10:16;;;;;;;4.38;1.63;;;11.80;99.90;;;;;;5053503;28;20060;-50
2023/05/02 11:12:50;;;;;;;7.38;1.23;;;11.80;99.90;;;;;;5053148;28;20127;-48
2023/05/02 11:15:25;;;;;;;3.50;0.80;;;12.20;99.90;;;;;;5055442;28;20150;-48
2023/05/02 11:18:07;;;;;;;6.53;1.23;;;12.70;99.90;;;;;;5052006;28;20082;-46
2023/05/02 11:20:33;;;;;;;5.27;1.33;;;12.90;99.90;;;;;;5054173;28;20044;-45
2023/05/02 11:23:26;;;;;;;5.70;1.02;;;13.40;99.90;;;;;;5035098;28;20271;-47
2023/05/02 11:25:55;;;;;;;;;;;13.50;99.90;;;;;;5054852;28;20041;-48
2023/05/02 11:28:36;;;;;;;5.82;1.08;;;13.70;99.90;;;;;;5053011;28;19924;-51
2023/05/02 11:31:04;;;;;;;4.47;1.00;;;13.70;99.90;;;;;;5052545;28;20405;-49
2023/05/02 11:33:29;;;;;;;7.45;1.35;;;13.60;99.90;;;;;;5053093;28;20040;-45
2023/05/02 11:35:58;;;;;;;4.50;1.15;;;13.70;99.90;;;;;;5052412;28;20048;-48
2023/05/02 11:38:25;;;;;;;11.10;1.50;;;14.50;99.90;;;;;;5052404;28;20041;-46
2023/05/02 11:40:57;;;;;;;5.93;1.25;;;14.20;99.90;;;;;;5051903;28;20079;-48
2023/05/02 11:43:24;;;;;;;8.77;1.10;;;13.80;99.90;;;;;;5052367;28;20106;-50
2023/05/02 11:45:51;;;;;;;3.50;0.93;;;13.40;99.90;;;;;;5056460;28;20167;-47
2023/05/02 11:48:19;;;;;;;2.25;0.60;;;13.40;99.90;;;;;;5055930;28;20048;-47
2023/05/02 11:50:50;;;;;;;1.67;0.52;;;12.90;99.90;;;;;;5055919;28;20079;-50
2023/05/02 11:53:28;;;;;;;3.08;0.70;;;12.80;99.90;;;;;;5056741;28;20150;-50
2023/05/02 11:56:03;;;;;;;4.43;1.10;;;13.40;99.90;;;;;;5055850;28;20084;-48
2023/05/02 11:58:31;;;;;;;3.10;1.10;;;13.70;99.90;;;;;;5055965;28;20416;-45
2023/05/02 12:00:58;;;;;;;3.88;0.80;;;14.20;99.90;;;;;;5055356;28;20080;-45
2023/05/02 12:03:26;;;;;;;2.08;0.60;;;13.80;99.90;;;;;;5055640;28;20159;-45
2023/05/02 12:05:52;;;;;;;2.85;1.00;;;13.80;99.90;;;;;;5054391;28;20048;-46
2023/05/02 12:08:24;;;;;;;4.50;0.75;;;13.30;99.90;;;;;;5056499;28;20205;-45
2023/05/02 12:10:51;;;;;;;1.67;0.60;;;12.90;99.90;;;;;;5055908;28;20377;-47
2023/05/02 12:13:17;;;;;;;1.75;0.68;;;12.60;99.90;;;;;;5055801;28;20037;-48
2023/05/02 12:15:43;;;;;;;3.20;0.63;;;12.70;99.90;;;;;;5056105;28;20075;-45
2023/05/02 12:18:09;;;;;;;3.22;0.73;;;12.80;99.90;;;;;;5055188;28;20637;-45
2023/05/02 12:20:37;;;;;;;3.17;0.80;;;12.70;99.90;;;;;;5056638;28;20331;-46
2023/05/02 12:23:05;;;;;;;3.08;0.70;;;11.60;99.90;;;;;;5054639;28;20059;-47
2023/05/02 12:25:36;;;;;;;4.07;0.70;;;12.90;99.90;;;;;;5055754;28;20123;-47
2023/05/02 12:28:02;;;;;;;4.88;0.80;;;13.00;99.90;;;;;;5055524;28;20433;-48
2023/05/02 12:30:30;;;;;;;3.95;0.80;;;13.30;99.90;;;;;;5054516;28;20048;-45
2023/05/02 12:32:57;;;;;;;5.95;0.82;;;13.70;99.90;;;;;;5055397;28;20102;-45
2023/05/02 12:35:23;;;;;;;4.13;0.63;;;13.90;99.90;;;;;;5055956;28;20037;-47
2023/05/02 12:37:49;;;;;;;5.22;0.85;;;14.00;99.90;;;;;;5054145;28;20044;-48
2023/05/02 12:40:16;;;;;;;2.78;0.77;;;13.70;99.90;;;;;;5054039;28;20044;-46
2023/05/02 12:42:42;;;;;;;3.65;0.70;;;13.60;99.90;;;;;;5037752;28;20044;-47
2023/05/02 12:45:17;;;;;;;2.78;0.50;;;13.40;99.90;;;;;;5055508;28;20043;-46
2023/05/02 12:47:46;;;;;;;2.65;0.75;;;13.20;99.90;;;;;;5057853;28;20745;-48
2023/05/02 12:50:11;;;;;;;3.60;0.60;;;13.30;99.90;;;;;;5055533;28;20047;-46
2023/05/02 12:52:49;;;;;;;1.92;0.55;;;13.40;99.90;;;;;;5056145;28;20045;-45
2023/05/02 12:55:19;;;;;;;2.13;0.63;;;13.80;99.90;;;;;;5056259;28;20044;-49
2023/05/02 12:57:46;;;;;;;2.40;0.60;;;14.20;99.90;;;;;;5055037;28;20059;-51